Time;durP1;ratioP1;P1;durP2;ratioP2;P2;SDS_P1;SDS_P2;PMS_P1;PMS_P2;Temp;Humidity;BMP_temperature;BMP_pressure;BME280_temperature;BME280_humidity;BME280_pressure;Samples;Min_cycle;Max_cycle;Signal;HPM_P1;HPM_P2
2023/04/24 00:02:15;;;;;;;1.13;0.80;;;;;;;;;;4946831;28;20027;-75
2023/04/24 00:04:44;;;;;;;1.13;0.95;;;;;;;;;;4948924;28;20484;-75
2023/04/24 00:07:10;;;;;;;0.80;0.80;;;;;;;;;;4944252;28;20094;-76
2023/04/24 00:09:36;;;;;;;1.15;0.85;;;;;;;;;;4948913;28;20043;-75
2023/04/24 00:12:04;;;;;;;1.00;0.80;;;;;;;;;;4947148;28;20023;-75
2023/04/24 00:14:30;;;;;;;1.05;0.93;;;;;;;;;;4950062;28;20031;-74
2023/04/24 00:16:56;;;;;;;1.65;0.77;;;;;;;;;;4944133;28;20031;-75
2023/04/24 00:19:22;;;;;;;0.70;0.70;;;;;;;;;;4941764;28;20026;-74
2023/04/24 00:21:51;;;;;;;1.90;1.00;;;;;;;;;;4942609;28;20027;-74
2023/04/24 00:24:18;;;;;;;0.80;0.80;;;;;;;;;;4940344;28;20147;-74
2023/04/24 00:26:44;;;;;;;1.23;0.80;;;;;;;;;;4944480;28;20039;-74
2023/04/24 00:29:09;;;;;;;1.38;1.08;;;;;;;;;;4946309;28;20107;-74
2023/04/24 00:31:35;;;;;;;2.08;0.95;;;;;;;;;;4946647;28;20038;-74
2023/04/24 00:34:02;;;;;;;1.85;1.02;;;;;;;;;;4949902;28;20026;-74
2023/04/24 00:36:28;;;;;;;1.38;0.85;;;;;;;;;;4948717;28;20053;-75
2023/04/24 00:38:55;;;;;;;1.08;0.75;;;;;;;;;;4949717;28;20054;-75
2023/04/24 00:41:21;;;;;;;0.63;0.63;;;;;;;;;;4947172;28;20036;-74
2023/04/24 00:43:47;;;;;;;0.80;0.80;;;;;;;;;;4951800;28;20035;-74
2023/04/24 00:46:14;;;;;;;1.85;0.80;;;;;;;;;;4932884;28;20032;-74
2023/04/24 00:48:40;;;;;;;1.02;0.90;;;;;;;;;;4948776;28;20178;-74
2023/04/24 00:51:06;;;;;;;1.38;0.77;;;;;;;;;;4949321;28;20402;-74
2023/04/24 00:53:32;;;;;;;0.60;0.60;;;;;;;;;;4947015;28;20029;-74
2023/04/24 00:55:59;;;;;;;0.63;0.55;;;;;;;;;;4946855;28;20114;-74
2023/04/24 00:58:25;;;;;;;0.60;0.60;;;;;;;;;;4949160;28;20031;-74
2023/04/24 01:00:52;;;;;;;1.20;0.93;;;;;;;;;;4952432;28;20436;-74
2023/04/24 01:03:20;;;;;;;1.13;0.80;;;;;;;;;;4950791;28;20041;-76
2023/04/24 01:05:46;;;;;;;0.73;0.70;;;;;;;;;;4952656;28;20043;-74
2023/04/24 01:08:12;;;;;;;1.00;0.80;;;;;;;;;;4950795;28;20035;-74
2023/04/24 01:10:39;;;;;;;2.38;0.85;;;;;;;;;;4952943;28;20067;-74
2023/04/24 01:13:05;;;;;;;1.05;0.85;;;;;;;;;;4951353;28;20034;-75
2023/04/24 01:15:31;;;;;;;1.58;0.90;;;;;;;;;;4935812;29;20371;-75
2023/04/24 01:17:57;;;;;;;1.10;0.90;;;;;;;;;;4951110;28;20062;-75
2023/04/24 01:20:24;;;;;;;1.20;0.90;;;;;;;;;;4952696;28;20038;-75
2023/04/24 01:22:50;;;;;;;0.73;0.63;;;;;;;;;;4948523;28;20119;-75
2023/04/24 01:25:16;;;;;;;0.75;0.75;;;;;;;;;;4945634;28;20106;-74
2023/04/24 01:27:42;;;;;;;1.10;0.98;;;;;;;;;;4946288;28;20050;-75
2023/04/24 01:30:08;;;;;;;1.55;0.98;;;;;;;;;;4943848;28;20050;-75
2023/04/24 01:32:35;;;;;;;0.82;0.57;;;;;;;;;;4944818;28;20031;-75
2023/04/24 01:35:01;;;;;;;1.42;0.70;;;;;;;;;;4945206;28;20553;-75
2023/04/24 01:37:27;;;;;;;0.60;0.60;;;;;;;;;;4944198;28;20036;-75
2023/04/24 01:39:53;;;;;;;1.08;0.80;;;;;;;;;;4945485;28;20029;-76
2023/04/24 01:42:19;;;;;;;1.55;0.82;;;;;;;;;;4944915;28;20598;-75
2023/04/24 01:44:45;;;;;;;1.40;0.90;;;;;;;;;;4945058;28;20058;-75
2023/04/24 01:47:12;;;;;;;1.05;0.80;;;;;;;;;;4944029;28;20398;-75
2023/04/24 01:49:38;;;;;;;0.73;0.70;;;;;;;;;;4945297;28;20063;-75
2023/04/24 01:52:05;;;;;;;0.77;0.75;;;;;;;;;;4943981;28;20038;-75
2023/04/24 01:54:31;;;;;;;0.68;0.63;;;;;;;;;;4944147;28;20099;-76
2023/04/24 01:56:56;;;;;;;0.85;0.65;;;;;;;;;;4943336;28;20731;-75
2023/04/24 01:59:23;;;;;;;0.73;0.70;;;;;;;;;;4945225;28;20031;-74
2023/04/24 02:01:49;;;;;;;0.90;0.80;;;;;;;;;;4943704;28;20067;-75
2023/04/24 02:04:15;;;;;;;1.65;0.85;;;;;;;;;;4945669;28;20094;-75
2023/04/24 02:06:41;;;;;;;1.42;0.63;;;;;;;;;;4943234;28;20031;-75
2023/04/24 02:09:07;;;;;;;0.90;0.90;;;;;;;;;;4945068;28;20027;-75
2023/04/24 02:11:33;;;;;;;0.90;0.63;;;;;;;;;;4944371;28;20039;-75
2023/04/24 02:13:59;;;;;;;0.70;0.70;;;;;;;;;;4943466;28;20035;-75
2023/04/24 02:16:25;;;;;;;0.85;0.75;;;;;;;;;;4944839;28;20389;-75
2023/04/24 02:18:51;;;;;;;0.55;0.55;;;;;;;;;;4945182;28;20031;-75
2023/04/24 02:21:17;;;;;;;1.45;0.98;;;;;;;;;;4925978;28;20027;-75
2023/04/24 02:23:43;;;;;;;0.77;0.50;;;;;;;;;;4944412;28;20094;-75
2023/04/24 02:26:09;;;;;;;0.70;0.70;;;;;;;;;;4942582;28;20083;-75
2023/04/24 02:28:35;;;;;;;0.90;0.80;;;;;;;;;;4945124;28;20031;-75
2023/04/24 02:31:01;;;;;;;1.50;0.95;;;;;;;;;;4943151;28;20042;-75
2023/04/24 02:33:27;;;;;;;1.02;0.93;;;;;;;;;;4942514;28;20038;-75
2023/04/24 02:35:53;;;;;;;1.38;1.10;;;;;;;;;;4943069;28;20054;-75
2023/04/24 02:38:19;;;;;;;0.65;0.52;;;;;;;;;;4944752;28;20590;-75
2023/04/24 02:40:45;;;;;;;2.17;0.80;;;;;;;;;;4942616;28;20449;-76
2023/04/24 02:43:11;;;;;;;0.63;0.60;;;;;;;;;;4945033;28;20050;-74
2023/04/24 02:45:38;;;;;;;1.00;0.90;;;;;;;;;;4942877;28;20031;-75
2023/04/24 02:48:04;;;;;;;1.40;0.65;;;;;;;;;;4944017;28;20035;-75
2023/04/24 02:50:30;;;;;;;0.95;0.80;;;;;;;;;;4944258;28;22010;-75
2023/04/24 02:52:56;;;;;;;0.70;0.70;;;;;;;;;;4943710;28;20095;-74
2023/04/24 02:55:22;;;;;;;0.73;0.60;;;;;;;;;;4942331;28;20390;-75
2023/04/24 02:57:48;;;;;;;1.95;0.70;;;;;;;;;;4943915;28;20035;-75
2023/04/24 03:00:14;;;;;;;0.95;0.77;;;;;;;;;;4942898;28;20581;-76
2023/04/24 03:02:40;;;;;;;1.05;0.80;;;;;;;;;;4943616;28;20019;-75
2023/04/24 03:05:07;;;;;;;0.80;0.65;;;;;;;;;;4943798;28;20065;-75
2023/04/24 03:07:33;;;;;;;0.70;0.70;;;;;;;;;;4942290;28;20038;-75
2023/04/24 03:09:59;;;;;;;0.50;0.50;;;;;;;;;;4945967;28;20027;-75
2023/04/24 03:12:25;;;;;;;0.95;0.75;;;;;;;;;;4942026;28;20055;-75
2023/04/24 03:14:51;;;;;;;1.15;0.90;;;;;;;;;;4942054;28;20501;-75
2023/04/24 03:17:17;;;;;;;0.80;0.80;;;;;;;;;;4944464;28;20039;-75
2023/04/24 03:19:43;;;;;;;0.63;0.63;;;;;;;;;;4942861;28;20050;-76
2023/04/24 03:22:09;;;;;;;0.60;0.60;;;;;;;;;;4941892;28;20035;-75
2023/04/24 03:24:35;;;;;;;0.52;0.52;;;;;;;;;;4940936;28;20039;-75
2023/04/24 03:27:01;;;;;;;0.90;0.90;;;;;;;;;;4941967;28;20179;-75
2023/04/24 03:29:27;;;;;;;0.82;0.70;;;;;;;;;;4945216;28;20031;-75
2023/04/24 03:31:53;;;;;;;0.60;0.60;;;;;;;;;;4943490;28;20034;-75
2023/04/24 03:34:19;;;;;;;0.77;0.77;;;;;;;;;;4941645;28;20091;-75
2023/04/24 03:36:47;;;;;;;1.33;0.70;;;;;;;;;;4942592;28;20462;-75
2023/04/24 03:39:13;;;;;;;0.75;0.75;;;;;;;;;;4943091;28;20670;-75
2023/04/24 03:41:39;;;;;;;1.02;0.93;;;;;;;;;;4943650;28;20050;-75
2023/04/24 03:44:05;;;;;;;0.70;0.70;;;;;;;;;;4941957;28;20398;-75
2023/04/24 03:46:31;;;;;;;0.60;0.60;;;;;;;;;;4942024;28;20035;-75
2023/04/24 03:48:57;;;;;;;1.20;0.90;;;;;;;;;;4942615;28;20161;-75
2023/04/24 03:51:23;;;;;;;0.65;0.60;;;;;;;;;;4942070;28;20506;-75
2023/04/24 03:53:49;;;;;;;1.15;1.00;;;;;;;;;;4942865;28;20064;-75
2023/04/24 03:56:15;;;;;;;0.60;0.60;;;;;;;;;;4942964;28;20046;-75
2023/04/24 03:58:41;;;;;;;1.70;0.70;;;;;;;;;;4942092;28;20027;-76
2023/04/24 04:01:07;;;;;;;1.48;0.90;;;;;;;;;;4942535;28;20027;-75
2023/04/24 04:03:33;;;;;;;1.20;1.00;;;;;;;;;;4942096;28;20776;-75
2023/04/24 04:06:00;;;;;;;1.30;0.90;;;;;;;;;;4944542;28;20046;-75
2023/04/24 04:08:26;;;;;;;0.70;0.70;;;;;;;;;;4940507;28;20090;-75
2023/04/24 04:10:52;;;;;;;4.03;1.20;;;;;;;;;;4944060;28;20038;-75
2023/04/24 04:13:18;;;;;;;0.98;0.80;;;;;;;;;;4941088;28;20015;-75
2023/04/24 04:15:44;;;;;;;1.17;0.85;;;;;;;;;;4942389;28;20490;-75
2023/04/24 04:18:10;;;;;;;1.05;0.95;;;;;;;;;;4948515;28;20034;-75
2023/04/24 04:20:36;;;;;;;0.98;0.70;;;;;;;;;;4947045;28;20336;-75
2023/04/24 04:23:02;;;;;;;0.60;0.60;;;;;;;;;;4949229;28;20124;-75
2023/04/24 04:25:28;;;;;;;0.88;0.73;;;;;;;;;;4947706;28;20506;-74
2023/04/24 04:27:55;;;;;;;1.10;0.90;;;;;;;;;;4948226;28;20039;-75
2023/04/24 04:30:21;;;;;;;0.85;0.70;;;;;;;;;;4945093;28;20063;-76
2023/04/24 04:32:47;;;;;;;0.88;0.80;;;;;;;;;;4954124;28;20601;-76
2023/04/24 04:35:13;;;;;;;0.90;0.57;;;;;;;;;;4954583;28;20030;-75
2023/04/24 04:37:42;;;;;;;1.52;0.77;;;;;;;;;;4948720;28;20039;-77
2023/04/24 04:40:11;;;;;;;0.85;0.70;;;;;;;;;;4949886;28;20047;-76
2023/04/24 04:42:40;;;;;;;0.75;0.60;;;;;;;;;;4954344;28;20111;-75
2023/04/24 04:45:07;;;;;;;1.15;0.73;;;;;;;;;;4955069;28;20438;-76
2023/04/24 04:47:33;;;;;;;1.30;0.80;;;;;;;;;;4955233;28;20030;-76
2023/04/24 04:49:59;;;;;;;2.20;0.90;;;;;;;;;;4952982;28;20489;-76
2023/04/24 04:52:25;;;;;;;1.17;0.70;;;;;;;;;;4953530;28;20039;-77
2023/04/24 04:54:51;;;;;;;0.60;0.60;;;;;;;;;;4953548;28;20082;-75
2023/04/24 04:57:17;;;;;;;1.73;0.90;;;;;;;;;;4949577;28;20375;-75
2023/04/24 04:59:43;;;;;;;0.95;0.80;;;;;;;;;;4950727;28;20023;-75
2023/04/24 05:02:09;;;;;;;1.13;0.90;;;;;;;;;;4956070;28;20027;-76
2023/04/24 05:04:35;;;;;;;1.30;1.00;;;;;;;;;;4947546;28;20087;-75
2023/04/24 05:07:01;;;;;;;1.33;0.70;;;;;;;;;;4950871;28;20066;-74
2023/04/24 05:09:29;;;;;;;1.33;0.90;;;;;;;;;;4951496;28;20031;-75
2023/04/24 05:11:55;;;;;;;2.30;0.82;;;;;;;;;;4950506;28;20559;-75
2023/04/24 05:14:21;;;;;;;0.98;0.88;;;;;;;;;;4951830;28;20109;-75
2023/04/24 05:16:47;;;;;;;1.10;0.90;;;;;;;;;;4952049;28;20042;-76
2023/04/24 05:19:14;;;;;;;1.42;0.75;;;;;;;;;;4945620;28;20502;-76
2023/04/24 05:21:40;;;;;;;0.63;0.63;;;;;;;;;;4944258;28;20117;-76
2023/04/24 05:27:17;;;;;;;0.63;0.60;;;;;;;;;;4927802;28;20058;-80
2023/04/24 05:29:43;;;;;;;0.60;0.50;;;;;;;;;;4948175;28;20148;-77
2023/04/24 05:32:09;;;;;;;1.23;0.70;;;;;;;;;;4951302;28;20477;-81
2023/04/24 05:34:36;;;;;;;1.00;0.70;;;;;;;;;;4949406;28;20031;-81
2023/04/24 05:37:02;;;;;;;0.77;0.73;;;;;;;;;;4946200;28;20405;-78
2023/04/24 05:39:28;;;;;;;0.85;0.85;;;;;;;;;;4953505;28;20019;-83
2023/04/24 05:41:57;;;;;;;0.85;0.85;;;;;;;;;;4953382;28;20030;-84
2023/04/24 05:44:23;;;;;;;1.42;1.02;;;;;;;;;;4944471;28;20023;-84
2023/04/24 05:46:49;;;;;;;0.80;0.80;;;;;;;;;;4947887;28;20038;-91
2023/04/24 05:49:15;;;;;;;1.23;1.13;;;;;;;;;;4957598;28;20103;-82
2023/04/24 05:51:41;;;;;;;1.10;0.65;;;;;;;;;;4947049;29;20042;-83
2023/04/24 05:54:07;;;;;;;0.75;0.70;;;;;;;;;;4941503;28;20152;-81
2023/04/24 05:56:34;;;;;;;1.30;0.88;;;;;;;;;;4953002;28;20368;-87
2023/04/24 05:58:59;;;;;;;0.55;0.55;;;;;;;;;;4953576;28;20154;-89
2023/04/24 06:01:25;;;;;;;1.10;1.00;;;;;;;;;;4952348;28;20043;-86
2023/04/24 06:03:52;;;;;;;0.75;0.75;;;;;;;;;;4952814;28;20034;-88
2023/04/24 06:06:19;;;;;;;0.90;0.57;;;;;;;;;;4946022;28;20050;-87
2023/04/24 06:08:45;;;;;;;0.85;0.77;;;;;;;;;;4952722;28;20024;-86
2023/04/24 06:11:11;;;;;;;0.65;0.65;;;;;;;;;;4935918;29;20102;-87
2023/04/24 06:13:37;;;;;;;0.70;0.70;;;;;;;;;;4950992;28;20557;-89
2023/04/24 06:16:03;;;;;;;1.63;0.95;;;;;;;;;;4950941;28;20030;-85
2023/04/24 06:18:29;;;;;;;1.13;1.02;;;;;;;;;;4961308;28;20487;-87
2023/04/24 06:20:55;;;;;;;0.63;0.60;;;;;;;;;;4934033;29;20028;-85
2023/04/24 06:23:21;;;;;;;2.00;0.75;;;;;;;;;;4938628;28;20458;-86
2023/04/24 06:25:47;;;;;;;0.65;0.65;;;;;;;;;;4927047;29;20032;-84
2023/04/24 06:28:13;;;;;;;0.70;0.70;;;;;;;;;;4944661;28;20027;-83
2023/04/24 06:30:39;;;;;;;0.80;0.80;;;;;;;;;;4949202;28;20094;-85
2023/04/24 06:33:05;;;;;;;0.77;0.68;;;;;;;;;;4945838;28;20142;-78
2023/04/24 06:35:31;;;;;;;2.05;0.80;;;;;;;;;;4947522;28;20023;-79
2023/04/24 06:37:57;;;;;;;0.63;0.60;;;;;;;;;;4945244;28;20019;-80
2023/04/24 06:40:23;;;;;;;0.60;0.60;;;;;;;;;;4935685;28;20090;-83
2023/04/24 06:42:49;;;;;;;0.75;0.57;;;;;;;;;;4947275;28;20035;-84
2023/04/24 06:45:15;;;;;;;0.80;0.63;;;;;;;;;;4944486;28;20036;-74
2023/04/24 06:47:41;;;;;;;0.73;0.63;;;;;;;;;;4946034;28;20059;-84
2023/04/24 06:50:07;;;;;;;1.33;0.70;;;;;;;;;;4943935;28;20027;-84
2023/04/24 06:52:33;;;;;;;0.82;0.82;;;;;;;;;;4949225;28;20500;-84
2023/04/24 06:55:02;;;;;;;0.57;0.57;;;;;;;;;;4946723;28;21366;-85
2023/04/24 06:57:29;;;;;;;1.45;0.70;;;;;;;;;;4947315;28;20027;-83
2023/04/24 06:59:55;;;;;;;0.85;0.70;;;;;;;;;;4945557;28;20051;-84
2023/04/24 07:02:21;;;;;;;1.00;0.90;;;;;;;;;;4947710;28;20117;-84
2023/04/24 07:04:47;;;;;;;0.60;0.60;;;;;;;;;;4946766;28;20047;-84
2023/04/24 07:07:17;;;;;;;0.57;0.57;;;;;;;;;;4946708;29;20027;-87
2023/04/24 07:09:44;;;;;;;0.82;0.70;;;;;;;;;;4945811;28;20641;-77
2023/04/24 07:12:10;;;;;;;1.77;0.93;;;;;;;;;;4943589;28;20405;-80
2023/04/24 07:14:36;;;;;;;0.52;0.52;;;;;;;;;;4947308;28;20034;-79
2023/04/24 07:17:03;;;;;;;0.50;0.50;;;;;;;;;;4947060;28;20093;-81
2023/04/24 07:19:29;;;;;;;1.45;0.73;;;;;;;;;;4938809;28;20031;-80
2023/04/24 07:21:55;;;;;;;0.70;0.70;;;;;;;;;;4937998;28;20105;-80
2023/04/24 07:24:21;;;;;;;0.75;0.73;;;;;;;;;;4947661;28;20042;-80
2023/04/24 07:26:47;;;;;;;0.68;0.68;;;;;;;;;;4945053;28;20038;-79
2023/04/24 07:29:14;;;;;;;0.60;0.60;;;;;;;;;;4946037;28;20042;-80
2023/04/24 07:31:41;;;;;;;0.60;0.60;;;;;;;;;;4946719;29;20023;-81
2023/04/24 07:34:07;;;;;;;1.20;0.60;;;;;;;;;;4947186;29;20023;-80
2023/04/24 07:36:33;;;;;;;0.55;0.55;;;;;;;;;;4946382;28;20027;-81
2023/04/24 07:38:59;;;;;;;0.60;0.60;;;;;;;;;;4946293;28;20549;-79
2023/04/24 07:41:25;;;;;;;0.57;0.57;;;;;;;;;;4943084;28;20035;-81
2023/04/24 07:43:52;;;;;;;0.50;0.50;;;;;;;;;;4946177;28;20023;-80
2023/04/24 07:46:18;;;;;;;0.63;0.63;;;;;;;;;;4947745;28;20027;-80
2023/04/24 07:48:44;;;;;;;0.70;0.70;;;;;;;;;;4946831;28;20058;-80
2023/04/24 07:51:13;;;;;;;0.60;0.60;;;;;;;;;;4946119;29;20098;-80
2023/04/24 07:53:39;;;;;;;0.50;0.50;;;;;;;;;;4945943;28;20090;-81
2023/04/24 07:56:05;;;;;;;0.70;0.60;;;;;;;;;;4946848;28;20031;-81
2023/04/24 07:58:31;;;;;;;0.57;0.57;;;;;;;;;;4948302;28;20027;-80
2023/04/24 08:00:57;;;;;;;2.75;0.60;;;;;;;;;;4947880;28;20622;-80
2023/04/24 08:03:24;;;;;;;0.55;0.50;;;;;;;;;;4946519;28;20390;-81
2023/04/24 08:05:50;;;;;;;0.60;0.60;;;;;;;;;;4946304;28;20043;-80
2023/04/24 08:08:16;;;;;;;0.88;0.60;;;;;;;;;;4944286;28;20027;-78
2023/04/24 08:10:42;;;;;;;0.95;0.65;;;;;;;;;;4945519;29;20034;-77
2023/04/24 08:13:08;;;;;;;0.65;0.57;;;;;;;;;;4947136;28;20106;-77
2023/04/24 08:15:35;;;;;;;3.72;0.63;;;;;;;;;;4946971;28;20027;-77
2023/04/24 08:18:01;;;;;;;0.45;0.45;;;;;;;;;;4947860;28;20030;-77
2023/04/24 08:20:27;;;;;;;1.23;0.60;;;;;;;;;;4948448;28;20458;-77
2023/04/24 08:22:53;;;;;;;0.20;0.20;;;;;;;;;;4943752;29;20130;-77
2023/04/24 08:25:20;;;;;;;0.65;0.65;;;;;;;;;;4943754;28;20024;-77
2023/04/24 08:27:46;;;;;;;0.43;0.43;;;;;;;;;;4947092;28;20042;-77
2023/04/24 08:30:12;;;;;;;0.40;0.40;;;;;;;;;;4945541;29;20019;-77
2023/04/24 08:32:38;;;;;;;0.55;0.50;;;;;;;;;;4946937;28;20038;-77
2023/04/24 08:35:04;;;;;;;0.43;0.43;;;;;;;;;;4944304;29;20023;-77
2023/04/24 08:37:30;;;;;;;0.60;0.50;;;;;;;;;;4948179;28;20033;-77
2023/04/24 08:39:56;;;;;;;1.25;0.60;;;;;;;;;;4946623;29;20024;-78
2023/04/24 08:42:22;;;;;;;0.85;0.68;;;;;;;;;;4945181;28;20723;-77
2023/04/24 08:44:50;;;;;;;0.50;0.50;;;;;;;;;;4945852;28;20034;-77
2023/04/24 08:47:16;;;;;;;1.08;0.50;;;;;;;;;;4945407;28;20046;-77
2023/04/24 08:49:43;;;;;;;0.35;0.35;;;;;;;;;;4945747;28;20031;-78
2023/04/24 08:52:09;;;;;;;0.45;0.45;;;;;;;;;;4946064;28;20033;-77
2023/04/24 08:54:36;;;;;;;1.33;0.55;;;;;;;;;;4944930;29;20038;-77
2023/04/24 08:57:03;;;;;;;0.50;0.50;;;;;;;;;;4947856;28;20020;-76
2023/04/24 08:59:30;;;;;;;0.45;0.40;;;;;;;;;;4947358;29;20078;-78
2023/04/24 09:01:56;;;;;;;1.05;0.70;;;;;;;;;;4943152;28;20027;-77
2023/04/24 09:04:24;;;;;;;0.40;0.40;;;;;;;;;;4944745;28;20079;-77
2023/04/24 09:06:50;;;;;;;5.38;0.50;;;;;;;;;;4946049;28;20122;-77
2023/04/24 09:09:17;;;;;;;0.30;0.30;;;;;;;;;;4944488;28;20041;-77
2023/04/24 09:11:43;;;;;;;2.78;0.20;;;;;;;;;;4943818;28;20028;-77
2023/04/24 09:14:10;;;;;;;0.40;0.40;;;;;;;;;;4946002;28;20505;-77
2023/04/24 09:16:36;;;;;;;1.40;0.40;;;;;;;;;;4944549;29;20033;-76
2023/04/24 09:19:03;;;;;;;0.50;0.50;;;;;;;;;;4947923;28;20130;-77
2023/04/24 09:21:33;;;;;;;0.50;0.50;;;;;;;;;;4947943;29;20041;-77
2023/04/24 09:23:59;;;;;;;0.32;0.32;;;;;;;;;;4950812;29;20478;-77
2023/04/24 09:26:26;;;;;;;0.40;0.40;;;;;;;;;;4949927;28;20125;-77
2023/04/24 09:28:54;;;;;;;0.30;0.30;;;;;;;;;;4945358;28;20038;-77
2023/04/24 09:31:21;;;;;;;0.43;0.43;;;;;;;;;;4949745;28;20031;-77
2023/04/24 09:33:57;;;;;;;1.60;0.45;;;;;;;;;;4950320;29;20035;-77
2023/04/24 09:36:32;;;;;;;0.30;0.30;;;;;;;;;;4950013;28;20042;-77
2023/04/24 09:38:59;;;;;;;0.80;0.40;;;;;;;;;;4944662;28;20027;-78
2023/04/24 09:41:26;;;;;;;0.73;0.50;;;;;;;;;;4942539;28;20067;-77
2023/04/24 09:43:54;;;;;;;0.30;0.30;;;;;;;;;;4949455;28;20063;-77
2023/04/24 09:46:21;;;;;;;4.00;0.55;;;;;;;;;;4948271;28;20470;-76
2023/04/24 09:48:47;;;;;;;0.52;0.40;;;;;;;;;;4947888;28;20070;-77
2023/04/24 09:51:15;;;;;;;0.30;0.30;;;;;;;;;;4948375;29;20573;-77
2023/04/24 09:53:45;;;;;;;0.47;0.45;;;;;;;;;;4949756;28;20061;-77
2023/04/24 09:56:14;;;;;;;0.75;0.40;;;;;;;;;;4948432;28;20031;-77
2023/04/24 09:58:40;;;;;;;1.70;0.40;;;;;;;;;;4947986;28;20035;-77
2023/04/24 10:01:07;;;;;;;0.50;0.50;;;;;;;;;;4946415;28;20035;-77
2023/04/24 10:03:33;;;;;;;0.50;0.50;;;;;;;;;;4947703;28;20027;-77
2023/04/24 10:06:00;;;;;;;1.55;0.50;;;;;;;;;;4949474;29;20039;-78
2023/04/24 10:08:26;;;;;;;0.82;0.47;;;;;;;;;;4949790;28;20122;-77
2023/04/24 10:10:53;;;;;;;0.45;0.45;;;;;;;;;;4946017;28;20031;-78
2023/04/24 10:13:19;;;;;;;0.50;0.30;;;;;;;;;;4947754;28;20034;-78
2023/04/24 10:15:46;;;;;;;0.40;0.40;;;;;;;;;;4947237;28;20042;-78
2023/04/24 10:18:12;;;;;;;0.60;0.60;;;;;;;;;;4944533;28;20070;-79
2023/04/24 10:20:40;;;;;;;0.40;0.40;;;;;;;;;;4939830;28;20223;-80
2023/04/24 10:23:06;;;;;;;0.73;0.40;;;;;;;;;;4945555;28;20042;-77
2023/04/24 10:25:34;;;;;;;0.40;0.40;;;;;;;;;;4942648;28;20434;-77
2023/04/24 10:28:00;;;;;;;0.43;0.38;;;;;;;;;;4948684;28;20131;-75
2023/04/24 10:30:27;;;;;;;0.40;0.40;;;;;;;;;;4948965;28;20042;-83
2023/04/24 10:32:53;;;;;;;2.08;0.60;;;;;;;;;;4950194;28;20046;-83
2023/04/24 10:35:22;;;;;;;1.45;0.63;;;;;;;;;;4950324;28;20020;-83
2023/04/24 10:37:53;;;;;;;0.70;0.70;;;;;;;;;;4944191;28;20155;-83
2023/04/24 10:40:20;;;;;;;1.60;0.73;;;;;;;;;;4942229;28;20110;-79
2023/04/24 10:42:49;;;;;;;1.42;0.85;;;;;;;;;;4934147;28;20035;-77
2023/04/24 10:45:21;;;;;;;1.10;0.50;;;;;;;;;;4944203;28;20110;-76
2023/04/24 10:47:53;;;;;;;0.73;0.73;;;;;;;;;;4946860;28;20094;-77
2023/04/24 10:50:20;;;;;;;0.88;0.73;;;;;;;;;;4950225;28;20378;-77
2023/04/24 10:52:46;;;;;;;0.60;0.60;;;;;;;;;;4950598;28;20055;-77
2023/04/24 10:55:15;;;;;;;2.05;0.80;;;;;;;;;;4950597;28;20462;-77
2023/04/24 10:58:01;;;;;;;0.82;0.80;;;;;;;;;;4948548;28;20486;-77
2023/04/24 11:00:27;;;;;;;0.90;0.60;;;;;;;;;;4950809;28;20062;-77
2023/04/24 11:02:53;;;;;;;6.22;1.50;;;;;;;;;;4950083;28;20058;-77
2023/04/24 11:05:20;;;;;;;0.75;0.75;;;;;;;;;;4950886;28;20130;-77
2023/04/24 11:08:21;;;;;;;1.45;0.80;;;;;;;;;;4948460;28;20032;-77
2023/04/24 11:10:48;;;;;;;0.95;0.80;;;;;;;;;;4883605;29;20335;-77
2023/04/24 11:13:17;;;;;;;0.65;0.65;;;;;;;;;;4919731;29;20031;-77
2023/04/24 11:15:43;;;;;;;2.38;0.90;;;;;;;;;;4930893;29;20028;-78
2023/04/24 11:18:15;;;;;;;1.38;0.75;;;;;;;;;;4942359;28;20030;-78
2023/04/24 11:20:45;;;;;;;4.03;0.85;;;;;;;;;;4947881;28;20046;-78
2023/04/24 11:23:12;;;;;;;1.95;1.10;;;;;;;;;;4948904;28;20170;-78
2023/04/24 11:25:38;;;;;;;1.02;0.63;;;;;;;;;;4950221;28;20457;-78
2023/04/24 11:28:05;;;;;;;0.70;0.70;;;;;;;;;;4948321;28;20035;-78
2023/04/24 11:30:33;;;;;;;1.08;0.93;;;;;;;;;;4948330;28;20030;-78
2023/04/24 11:33:03;;;;;;;1.33;0.90;;;;;;;;;;4949636;28;20054;-78
2023/04/24 11:35:30;;;;;;;2.15;0.93;;;;;;;;;;4947893;28;20114;-78
2023/04/24 11:37:56;;;;;;;0.90;0.80;;;;;;;;;;4949307;28;20035;-78
2023/04/24 11:40:23;;;;;;;0.55;0.52;;;;;;;;;;4947703;28;20051;-78
2023/04/24 11:42:50;;;;;;;1.42;1.25;;;;;;;;;;4947899;28;20047;-78
2023/04/24 11:45:17;;;;;;;1.50;0.80;;;;;;;;;;4946760;28;20484;-77
2023/04/24 11:47:43;;;;;;;0.65;0.65;;;;;;;;;;4948192;28;20031;-78
2023/04/24 11:50:11;;;;;;;1.38;0.98;;;;;;;;;;4946583;28;22324;-78
2023/04/24 11:52:38;;;;;;;3.70;0.82;;;;;;;;;;4945596;28;20393;-78
2023/04/24 11:55:05;;;;;;;1.08;0.60;;;;;;;;;;4946267;28;20027;-77
2023/04/24 11:57:34;;;;;;;0.63;0.47;;;;;;;;;;4945485;28;20095;-78
2023/04/24 12:00:05;;;;;;;1.50;0.50;;;;;;;;;;4929583;29;20032;-78
2023/04/24 12:02:31;;;;;;;0.63;0.63;;;;;;;;;;4946592;28;20047;-78
2023/04/24 12:04:57;;;;;;;1.20;0.63;;;;;;;;;;4949151;28;20134;-78
2023/04/24 12:07:24;;;;;;;3.58;1.95;;;;;;;;;;4948490;28;20110;-78
2023/04/24 12:09:59;;;;;;;1.92;0.65;;;;;;;;;;4948669;28;20015;-78
2023/04/24 12:12:27;;;;;;;3.50;0.90;;;;;;;;;;4948871;28;20027;-78
2023/04/24 12:14:54;;;;;;;4.15;0.95;;;;;;;;;;4946636;28;20038;-78
2023/04/24 12:17:31;;;;;;;2.03;1.15;;;;;;;;;;4948706;28;20513;-78
2023/04/24 12:20:07;;;;;;;0.70;0.70;;;;;;;;;;4948584;28;20031;-78
2023/04/24 12:22:47;;;;;;;0.77;0.77;;;;;;;;;;4948802;28;20581;-77
2023/04/24 12:25:13;;;;;;;0.57;0.57;;;;;;;;;;4946097;28;20030;-78
2023/04/24 12:27:39;;;;;;;0.70;0.70;;;;;;;;;;4948567;28;20030;-78
2023/04/24 12:30:06;;;;;;;1.08;0.80;;;;;;;;;;4949113;28;20019;-78
2023/04/24 12:32:32;;;;;;;0.70;0.50;;;;;;;;;;4948601;28;20140;-78
2023/04/24 12:34:58;;;;;;;1.30;1.02;;;;;;;;;;4947833;28;20158;-78
2023/04/24 12:37:25;;;;;;;1.05;0.95;;;;;;;;;;4948940;28;20027;-78
2023/04/24 12:40:01;;;;;;;1.23;0.80;;;;;;;;;;4941771;28;20162;-79
2023/04/24 12:42:28;;;;;;;0.85;0.68;;;;;;;;;;4948273;28;20043;-80
2023/04/24 12:44:57;;;;;;;1.08;0.60;;;;;;;;;;4948992;28;20038;-80
2023/04/24 12:47:23;;;;;;;0.98;0.88;;;;;;;;;;4943542;28;20035;-80
2023/04/24 12:49:50;;;;;;;0.95;0.50;;;;;;;;;;4947941;28;20035;-80
2023/04/24 12:52:17;;;;;;;1.35;1.00;;;;;;;;;;4943920;28;20020;-78
2023/04/24 12:54:43;;;;;;;1.00;0.68;;;;;;;;;;4958444;28;20061;-81
2023/04/24 12:57:09;;;;;;;0.90;0.52;;;;;;;;;;4947944;28;20069;-80
2023/04/24 12:59:35;;;;;;;0.82;0.68;;;;;;;;;;4944096;28;20173;-81
2023/04/24 13:02:01;;;;;;;0.77;0.60;;;;;;;;;;4943583;28;20454;-79
2023/04/24 13:04:27;;;;;;;1.83;1.23;;;;;;;;;;4945051;28;20047;-86
2023/04/24 13:06:53;;;;;;;0.50;0.50;;;;;;;;;;4941481;28;20038;-84
2023/04/24 13:09:19;;;;;;;0.30;0.30;;;;;;;;;;4936232;29;20042;-88
2023/04/24 13:11:45;;;;;;;1.45;0.43;;;;;;;;;;4947069;28;20027;-79
2023/04/24 13:14:11;;;;;;;1.00;0.57;;;;;;;;;;4942398;28;20478;-89
2023/04/24 13:16:37;;;;;;;0.35;0.35;;;;;;;;;;4933562;28;20035;-87
2023/04/24 13:19:03;;;;;;;2.58;0.50;;;;;;;;;;4948212;28;20390;-81
2023/04/24 13:21:30;;;;;;;0.40;0.40;;;;;;;;;;4947159;28;20390;-82
2023/04/24 13:23:59;;;;;;;0.43;0.43;;;;;;;;;;4946952;28;20415;-77
2023/04/24 13:26:25;;;;;;;0.30;0.30;;;;;;;;;;4946661;28;20034;-86
2023/04/24 13:28:59;;;;;;;0.40;0.40;;;;;;;;;;4954949;28;20036;-89
2023/04/24 13:31:28;;;;;;;0.63;0.40;;;;;;;;;;4949000;28;20031;-84
2023/04/24 13:33:54;;;;;;;1.10;0.65;;;;;;;;;;4950575;28;20054;-86
2023/04/24 13:36:20;;;;;;;0.73;0.65;;;;;;;;;;4947408;28;20044;-84
2023/04/24 13:38:46;;;;;;;0.40;0.40;;;;;;;;;;4951698;28;20035;-77
2023/04/24 13:41:12;;;;;;;0.45;0.45;;;;;;;;;;4953388;28;20030;-85
2023/04/24 13:43:38;;;;;;;0.90;0.40;;;;;;;;;;4951323;28;20031;-87
2023/04/24 13:46:06;;;;;;;1.15;0.57;;;;;;;;;;4948717;28;20039;-87
2023/04/24 13:48:32;;;;;;;0.50;0.50;;;;;;;;;;4949146;28;20031;-83
2023/04/24 13:50:58;;;;;;;0.80;0.60;;;;;;;;;;4948660;28;20110;-78
2023/04/24 13:53:24;;;;;;;0.60;0.50;;;;;;;;;;4948376;28;20390;-83
2023/04/24 13:55:50;;;;;;;2.63;1.02;;;;;;;;;;4947592;28;20164;-84
2023/04/24 13:58:16;;;;;;;3.80;0.52;;;;;;;;;;4948719;28;20032;-79
2023/04/24 14:00:42;;;;;;;0.40;0.40;;;;;;;;;;4947237;28;20067;-85
2023/04/24 14:03:08;;;;;;;1.42;0.60;;;;;;;;;;4947620;28;20028;-88
2023/04/24 14:05:34;;;;;;;1.33;0.85;;;;;;;;;;4954740;28;20057;-86
2023/04/24 14:08:00;;;;;;;0.45;0.45;;;;;;;;;;4947878;28;20037;-88
2023/04/24 14:10:26;;;;;;;0.57;0.57;;;;;;;;;;4946857;28;20020;-81
2023/04/24 14:12:53;;;;;;;0.57;0.40;;;;;;;;;;4947337;28;20019;-80
2023/04/24 14:15:25;;;;;;;0.60;0.47;;;;;;;;;;4949138;28;20367;-84
2023/04/24 14:17:59;;;;;;;1.85;0.60;;;;;;;;;;4948261;28;20023;-81
2023/04/24 14:20:31;;;;;;;0.50;0.50;;;;;;;;;;4949956;28;20238;-84
2023/04/24 14:22:58;;;;;;;0.63;0.63;;;;;;;;;;4945745;28;20058;-81
2023/04/24 14:25:24;;;;;;;0.40;0.40;;;;;;;;;;4948648;28;20110;-82
2023/04/24 14:27:51;;;;;;;1.20;0.40;;;;;;;;;;4943707;28;20420;-82
2023/04/24 14:30:17;;;;;;;0.40;0.40;;;;;;;;;;4950332;28;20023;-82
2023/04/24 14:32:45;;;;;;;0.50;0.50;;;;;;;;;;4947169;28;20023;-81
2023/04/24 14:35:11;;;;;;;0.50;0.50;;;;;;;;;;4942792;28;20510;-81
2023/04/24 14:37:41;;;;;;;0.75;0.57;;;;;;;;;;4951134;28;20038;-83
2023/04/24 14:40:16;;;;;;;0.40;0.40;;;;;;;;;;4945131;28;20103;-81
2023/04/24 14:42:42;;;;;;;0.93;0.77;;;;;;;;;;4938335;28;20091;-80
2023/04/24 14:45:08;;;;;;;0.50;0.50;;;;;;;;;;4939265;28;20035;-81